Time,TemperatureF,DewpointF,PressureIn,WindDirection,WindDirectionDegrees,WindSpeedMPH,WindSpeedGustMPH,Humidity,HourlyPrecipIn,Conditions,Clouds,dailyrainin,SolarRadiationWatts/m^2,SoftwareType,DateUTC
2013-01-08 00:02:00,22.0,3.0,-100.00,East,90,3.0,5.0,44,0.00,,,0.00,0.000000,,2013-01-08 07:02:00,
2013-01-08 00:12:00,22.0,3.0,-100.00,East,90,3.0,5.0,44,0.00,,,0.00,0.000000,,2013-01-08 07:12:00,
2013-01-08 00:22:00,22.0,3.0,-100.00,East,90,3.0,5.0,44,0.00,,,0.00,0.000000,,2013-01-08 07:22:00,
2013-01-08 00:32:00,22.0,3.0,-100.00,East,90,3.0,5.0,44,0.00,,,0.00,0.000000,,2013-01-08 07:32:00,
2013-01-08 00:42:00,22.0,3.0,-100.00,East,90,3.0,5.0,44,0.00,,,0.00,0.000000,,2013-01-08 07:42:00,
2013-01-08 01:02:00,23.0,2.0,-100.00,NNE,15,2.0,5.0,39,0.00,,,0.00,0.000000,,2013-01-08 08:02:00,
2013-01-08 01:12:00,23.0,2.0,-100.00,NNE,15,2.0,5.0,39,0.00,,,0.00,0.000000,,2013-01-08 08:12:00,
2013-01-08 01:22:00,23.0,2.0,-100.00,NNE,15,2.0,5.0,39,0.00,,,0.00,0.000000,,2013-01-08 08:22:00,
2013-01-08 01:32:00,23.0,2.0,-100.00,NNE,15,2.0,5.0,39,0.00,,,0.00,0.000000,,2013-01-08 08:32:00,
2013-01-08 01:42:00,23.0,2.0,-100.00,NNE,15,2.0,5.0,39,0.00,,,0.00,0.000000,,2013-01-08 08:42:00,
2013-01-08 02:02:00,21.0,1.0,-100.00,ESE,122,2.0,6.0,40,0.00,,,0.00,0.000000,,2013-01-08 09:02:00,
2013-01-08 02:12:00,21.0,1.0,-100.00,ESE,122,2.0,6.0,40,0.00,,,0.00,0.000000,,2013-01-08 09:12:00,
2013-01-08 02:22:00,21.0,1.0,-100.00,ESE,122,2.0,6.0,40,0.00,,,0.00,0.000000,,2013-01-08 09:22:00,
2013-01-08 02:32:00,21.0,1.0,-100.00,ESE,122,2.0,6.0,40,0.00,,,0.00,0.000000,,2013-01-08 09:32:00,
2013-01-08 02:42:00,21.0,1.0,-100.00,ESE,122,2.0,6.0,40,0.00,,,0.00,0.000000,,2013-01-08 09:42:00,
2013-01-08 03:02:00,19.0,1.0,-100.00,NE,35,1.0,5.0,45,0.00,,,0.00,0.000000,,2013-01-08 10:02:00,
2013-01-08 03:12:00,19.0,1.0,-100.00,NE,35,1.0,5.0,45,0.00,,,0.00,0.000000,,2013-01-08 10:12:00,
2013-01-08 03:22:00,19.0,1.0,-100.00,NE,35,1.0,5.0,45,0.00,,,0.00,0.000000,,2013-01-08 10:22:00,
2013-01-08 03:32:00,19.0,1.0,-100.00,NE,35,1.0,5.0,45,0.00,,,0.00,0.000000,,2013-01-08 10:32:00,
2013-01-08 03:42:00,19.0,1.0,-100.00,NE,35,1.0,5.0,45,0.00,,,0.00,0.000000,,2013-01-08 10:42:00,
2013-01-08 04:12:00,20.0,1.0,-100.00,ENE,64,2.0,6.0,43,0.00,,,0.00,0.000000,,2013-01-08 11:12:00,
2013-01-08 04:22:00,20.0,1.0,-100.00,ENE,64,2.0,6.0,43,0.00,,,0.00,0.000000,,2013-01-08 11:22:00,
2013-01-08 04:32:00,20.0,1.0,-100.00,ENE,64,2.0,6.0,43,0.00,,,0.00,0.000000,,2013-01-08 11:32:00,
2013-01-08 04:42:00,20.0,1.0,-100.00,ENE,64,2.0,6.0,43,0.00,,,0.00,0.000000,,2013-01-08 11:42:00,
2013-01-08 05:02:00,21.0,1.0,-100.00,NE,56,3.0,5.0,40,0.00,,,0.00,0.000000,,2013-01-08 12:02:00,
2013-01-08 05:12:00,21.0,1.0,-100.00,NE,56,3.0,5.0,40,0.00,,,0.00,0.000000,,2013-01-08 12:12:00,
2013-01-08 05:22:00,21.0,1.0,-100.00,NE,56,3.0,5.0,40,0.00,,,0.00,0.000000,,2013-01-08 12:22:00,
2013-01-08 05:32:00,21.0,1.0,-100.00,NE,56,3.0,5.0,40,0.00,,,0.00,0.000000,,2013-01-08 12:32:00,
2013-01-08 05:42:00,21.0,1.0,-100.00,NE,56,3.0,5.0,40,0.00,,,0.00,0.000000,,2013-01-08 12:42:00,
2013-01-08 06:03:00,20.0,0.0,-100.00,West,275,2.0,9.0,40,0.00,,,0.00,0.000000,,2013-01-08 13:03:00,
2013-01-08 06:12:00,20.0,0.0,-100.00,West,275,2.0,9.0,40,0.00,,,0.00,0.000000,,2013-01-08 13:12:00,
2013-01-08 06:22:00,20.0,0.0,-100.00,West,275,2.0,9.0,40,0.00,,,0.00,0.000000,,2013-01-08 13:22:00,
2013-01-08 06:32:00,20.0,0.0,-100.00,West,275,2.0,9.0,40,0.00,,,0.00,0.000000,,2013-01-08 13:32:00,
2013-01-08 06:42:00,20.0,0.0,-100.00,West,275,2.0,9.0,40,0.00,,,0.00,0.000000,,2013-01-08 13:42:00,
2013-01-08 07:02:00,27.0,4.0,-100.00,NNW,341,11.0,18.0,36,0.00,,,0.00,0.000000,,2013-01-08 14:02:00,
2013-01-08 07:12:00,27.0,4.0,-100.00,NNW,341,11.0,18.0,36,0.00,,,0.00,0.000000,,2013-01-08 14:12:00,
2013-01-08 07:23:00,27.0,4.0,-100.00,NNW,341,11.0,18.0,36,0.00,,,0.00,0.000000,,2013-01-08 14:23:00,
2013-01-08 07:33:00,27.0,4.0,-100.00,NNW,341,11.0,18.0,36,0.00,,,0.00,0.000000,,2013-01-08 14:33:00,
2013-01-08 07:42:00,27.0,4.0,-100.00,NNW,341,11.0,18.0,36,0.00,,,0.00,0.000000,,2013-01-08 14:42:00,
2013-01-08 08:02:00,28.0,5.0,-100.00,SW,216,10.0,21.0,36,0.00,,,0.00,0.000000,,2013-01-08 15:02:00,
2013-01-08 08:12:00,28.0,5.0,-100.00,SW,216,10.0,21.0,36,0.00,,,0.00,0.000000,,2013-01-08 15:12:00,
2013-01-08 08:22:00,28.0,5.0,-100.00,SW,216,10.0,21.0,36,0.00,,,0.00,0.000000,,2013-01-08 15:22:00,
2013-01-08 08:33:00,28.0,5.0,-100.00,SW,216,10.0,21.0,36,0.00,,,0.00,0.000000,,2013-01-08 15:33:00,
2013-01-08 08:42:00,28.0,5.0,-100.00,SW,216,10.0,21.0,36,0.00,,,0.00,0.000000,,2013-01-08 15:42:00,
2013-01-08 09:03:00,32.0,6.0,-100.00,ESE,111,10.0,18.0,32,0.00,,,0.00,32.000000,,2013-01-08 16:03:00,
2013-01-08 09:33:00,32.0,6.0,-100.00,ESE,111,10.0,18.0,32,0.00,,,0.00,32.000000,,2013-01-08 16:33:00,
2013-01-08 09:42:00,32.0,6.0,-100.00,ESE,111,10.0,18.0,32,0.00,,,0.00,32.000000,,2013-01-08 16:42:00,
2013-01-08 10:03:00,33.0,6.0,-100.00,SW,234,14.0,22.0,32,0.00,,,0.00,197.000000,,2013-01-08 17:03:00,
2013-01-08 10:12:00,33.0,6.0,-100.00,SW,234,14.0,22.0,32,0.00,,,0.00,197.000000,,2013-01-08 17:12:00,
2013-01-08 10:23:00,33.0,6.0,-100.00,SW,234,14.0,22.0,32,0.00,,,0.00,197.000000,,2013-01-08 17:23:00,
2013-01-08 10:33:00,33.0,6.0,-100.00,SW,234,14.0,22.0,32,0.00,,,0.00,197.000000,,2013-01-08 17:33:00,
2013-01-08 10:42:00,33.0,6.0,-100.00,SW,234,14.0,22.0,32,0.00,,,0.00,197.000000,,2013-01-08 17:42:00,
2013-01-08 11:03:00,37.0,9.0,-100.00,ESE,108,13.0,22.0,31,0.00,,,0.00,379.000000,,2013-01-08 18:03:00,
2013-01-08 11:12:00,37.0,9.0,-100.00,ESE,108,13.0,22.0,31,0.00,,,0.00,379.000000,,2013-01-08 18:12:00,
2013-01-08 11:23:00,37.0,9.0,-100.00,ESE,108,13.0,22.0,31,0.00,,,0.00,379.000000,,2013-01-08 18:23:00,
2013-01-08 11:33:00,37.0,9.0,-100.00,ESE,108,13.0,22.0,31,0.00,,,0.00,379.000000,,2013-01-08 18:33:00,
2013-01-08 11:42:00,37.0,9.0,-100.00,ESE,108,13.0,22.0,31,0.00,,,0.00,379.000000,,2013-01-08 18:42:00,
2013-01-08 12:03:00,39.0,14.0,-100.00,West,261,10.0,24.0,36,0.00,,,0.00,507.000000,,2013-01-08 19:03:00,
2013-01-08 12:12:00,39.0,14.0,-100.00,West,261,10.0,24.0,36,0.00,,,0.00,507.000000,,2013-01-08 19:12:00,
2013-01-08 12:22:00,39.0,14.0,-100.00,West,261,10.0,24.0,36,0.00,,,0.00,507.000000,,2013-01-08 19:22:00,
2013-01-08 12:32:00,39.0,14.0,-100.00,West,261,10.0,24.0,36,0.00,,,0.00,507.000000,,2013-01-08 19:32:00,
2013-01-08 12:42:00,39.0,14.0,-100.00,West,261,10.0,24.0,36,0.00,,,0.00,507.000000,,2013-01-08 19:42:00,
2013-01-08 13:02:00,40.0,12.0,-100.00,WNW,300,11.0,19.0,31,0.00,,,0.00,658.000000,,2013-01-08 20:02:00,
2013-01-08 13:12:00,40.0,12.0,-100.00,WNW,300,11.0,19.0,31,0.00,,,0.00,658.000000,,2013-01-08 20:12:00,
2013-01-08 13:22:00,40.0,12.0,-100.00,WNW,300,11.0,19.0,31,0.00,,,0.00,658.000000,,2013-01-08 20:22:00,
2013-01-08 13:32:00,40.0,12.0,-100.00,WNW,300,11.0,19.0,31,0.00,,,0.00,658.000000,,2013-01-08 20:32:00,
2013-01-08 13:42:00,40.0,12.0,-100.00,WNW,300,11.0,19.0,31,0.00,,,0.00,658.000000,,2013-01-08 20:42:00,
2013-01-08 14:02:00,42.0,16.0,-100.00,NNE,27,15.0,23.0,35,0.00,,,0.00,726.000000,,2013-01-08 21:02:00,
2013-01-08 14:12:00,42.0,16.0,-100.00,NNE,27,15.0,23.0,35,0.00,,,0.00,726.000000,,2013-01-08 21:12:00,
2013-01-08 14:22:00,42.0,16.0,-100.00,NNE,27,15.0,23.0,35,0.00,,,0.00,726.000000,,2013-01-08 21:22:00,
2013-01-08 14:33:00,42.0,16.0,-100.00,NNE,27,15.0,23.0,35,0.00,,,0.00,726.000000,,2013-01-08 21:33:00,
2013-01-08 14:42:00,42.0,16.0,-100.00,NNE,27,15.0,23.0,35,0.00,,,0.00,726.000000,,2013-01-08 21:42:00,
2013-01-08 15:02:00,41.0,15.0,-100.00,WNW,291,13.0,26.0,35,0.00,,,0.00,676.000000,,2013-01-08 22:02:00,
2013-01-08 15:12:00,41.0,15.0,-100.00,WNW,291,13.0,26.0,35,0.00,,,0.00,676.000000,,2013-01-08 22:12:00,
2013-01-08 15:22:00,41.0,15.0,-100.00,WNW,291,13.0,26.0,35,0.00,,,0.00,676.000000,,2013-01-08 22:22:00,
2013-01-08 15:32:00,41.0,15.0,-100.00,WNW,291,13.0,26.0,35,0.00,,,0.00,676.000000,,2013-01-08 22:32:00,
2013-01-08 15:42:00,41.0,15.0,-100.00,WNW,291,13.0,26.0,35,0.00,,,0.00,676.000000,,2013-01-08 22:42:00,
2013-01-08 16:02:00,40.0,15.0,-100.00,East,94,10.0,21.0,36,0.00,,,0.00,531.000000,,2013-01-08 23:02:00,
2013-01-08 16:12:00,40.0,15.0,-100.00,East,94,10.0,21.0,36,0.00,,,0.00,531.000000,,2013-01-08 23:12:00,
2013-01-08 16:22:00,40.0,15.0,-100.00,East,94,10.0,21.0,36,0.00,,,0.00,531.000000,,2013-01-08 23:22:00,
2013-01-08 16:32:00,40.0,15.0,-100.00,East,94,10.0,21.0,36,0.00,,,0.00,531.000000,,2013-01-08 23:32:00,
2013-01-08 16:42:00,40.0,15.0,-100.00,East,94,10.0,21.0,36,0.00,,,0.00,531.000000,,2013-01-08 23:42:00,
2013-01-08 17:02:00,33.0,11.0,-100.00,WNW,290,10.0,20.0,40,0.00,,,0.00,347.000000,,2013-01-09 00:02:00,
2013-01-08 17:12:00,33.0,11.0,-100.00,WNW,290,10.0,20.0,40,0.00,,,0.00,347.000000,,2013-01-09 00:12:00,
2013-01-08 17:22:00,33.0,11.0,-100.00,WNW,290,10.0,20.0,40,0.00,,,0.00,347.000000,,2013-01-09 00:22:00,
2013-01-08 17:32:00,33.0,11.0,-100.00,WNW,290,10.0,20.0,40,0.00,,,0.00,347.000000,,2013-01-09 00:32:00,
2013-01-08 17:42:00,33.0,11.0,-100.00,WNW,290,10.0,20.0,40,0.00,,,0.00,347.000000,,2013-01-09 00:42:00,
2013-01-08 18:02:00,31.0,13.0,-100.00,North,349,11.0,21.0,46,0.00,,,0.00,142.000000,,2013-01-09 01:02:00,
2013-01-08 18:12:00,31.0,13.0,-100.00,North,349,11.0,21.0,46,0.00,,,0.00,142.000000,,2013-01-09 01:12:00,
2013-01-08 18:22:00,31.0,13.0,-100.00,North,349,11.0,21.0,46,0.00,,,0.00,142.000000,,2013-01-09 01:22:00,
2013-01-08 18:32:00,31.0,13.0,-100.00,North,349,11.0,21.0,46,0.00,,,0.00,142.000000,,2013-01-09 01:32:00,
2013-01-08 18:42:00,31.0,13.0,-100.00,North,349,11.0,21.0,46,0.00,,,0.00,142.000000,,2013-01-09 01:42:00,
2013-01-08 19:02:00,30.0,12.0,-100.00,West,278,9.0,17.0,47,0.00,,,0.00,8.000000,,2013-01-09 02:02:00,
2013-01-08 19:12:00,30.0,12.0,-100.00,West,278,9.0,17.0,47,0.00,,,0.00,8.000000,,2013-01-09 02:12:00,
2013-01-08 19:22:00,30.0,12.0,-100.00,West,278,9.0,17.0,47,0.00,,,0.00,8.000000,,2013-01-09 02:22:00,
2013-01-08 19:32:00,30.0,12.0,-100.00,West,278,9.0,17.0,47,0.00,,,0.00,8.000000,,2013-01-09 02:32:00,
2013-01-08 19:42:00,30.0,12.0,-100.00,West,278,9.0,17.0,47,0.00,,,0.00,8.000000,,2013-01-09 02:42:00,
2013-01-08 20:03:00,30.0,12.0,-100.00,SSE,164,6.0,16.0,47,0.00,,,0.00,0.000000,,2013-01-09 03:03:00,
2013-01-08 20:12:00,30.0,12.0,-100.00,SSE,164,6.0,16.0,47,0.00,,,0.00,0.000000,,2013-01-09 03:12:00,
2013-01-08 20:22:00,30.0,12.0,-100.00,SSE,164,6.0,16.0,47,0.00,,,0.00,0.000000,,2013-01-09 03:22:00,
2013-01-08 20:33:00,30.0,12.0,-100.00,SSE,164,6.0,16.0,47,0.00,,,0.00,0.000000,,2013-01-09 03:33:00,
2013-01-08 20:42:00,30.0,12.0,-100.00,SSE,164,6.0,16.0,47,0.00,,,0.00,0.000000,,2013-01-09 03:42:00,
2013-01-08 21:02:00,31.0,13.0,-100.00,NE,45,4.0,16.0,46,0.00,,,0.00,0.000000,,2013-01-09 04:02:00,
2013-01-08 21:12:00,31.0,13.0,-100.00,NE,45,4.0,16.0,46,0.00,,,0.00,0.000000,,2013-01-09 04:12:00,
2013-01-08 21:22:00,31.0,13.0,-100.00,NE,45,4.0,16.0,46,0.00,,,0.00,0.000000,,2013-01-09 04:22:00,
2013-01-08 21:32:00,31.0,13.0,-100.00,NE,45,4.0,16.0,46,0.00,,,0.00,0.000000,,2013-01-09 04:32:00,
2013-01-08 21:42:00,31.0,13.0,-100.00,NE,45,4.0,16.0,46,0.00,,,0.00,0.000000,,2013-01-09 04:42:00,
2013-01-08 22:03:00,30.0,13.0,-100.00,NE,41,5.0,10.0,48,0.00,,,0.00,0.000000,,2013-01-09 05:03:00,
2013-01-08 22:12:00,30.0,13.0,-100.00,NE,41,5.0,10.0,48,0.00,,,0.00,0.000000,,2013-01-09 05:12:00,
2013-01-08 22:22:00,30.0,13.0,-100.00,NE,41,5.0,10.0,48,0.00,,,0.00,0.000000,,2013-01-09 05:22:00,
2013-01-08 22:33:00,30.0,13.0,-100.00,NE,41,5.0,10.0,48,0.00,,,0.00,0.000000,,2013-01-09 05:33:00,
2013-01-08 22:42:00,30.0,13.0,-100.00,NE,41,5.0,10.0,48,0.00,,,0.00,0.000000,,2013-01-09 05:42:00,
2013-01-08 23:02:00,28.0,12.0,-100.00,NNE,12,5.0,8.0,50,0.00,,,0.00,0.000000,,2013-01-09 06:02:00,
2013-01-08 23:12:00,28.0,12.0,-100.00,NNE,12,5.0,8.0,50,0.00,,,0.00,0.000000,,2013-01-09 06:12:00,
2013-01-08 23:22:00,28.0,12.0,-100.00,NNE,12,5.0,8.0,50,0.00,,,0.00,0.000000,,2013-01-09 06:22:00,
2013-01-08 23:32:00,28.0,12.0,-100.00,NNE,12,5.0,8.0,50,0.00,,,0.00,0.000000,,2013-01-09 06:32:00,
2013-01-08 23:42:00,28.0,12.0,-100.00,NNE,12,5.0,8.0,50,0.00,,,0.00,0.000000,,2013-01-09 06:42:00,